BTN3700 VECC-VQPR
Flight info
| Callsign | BTN3700 |
|---|---|
| Flight time | N/A |
| Altitude | 35000 |
| Route | AGODA2E AGODA R472 RAJ R598 BOGOP BOGOP1A |
| Aircraft | A319/M-SDE3FGHIRWY/LB1 |
Departure
| Time | 2026-05-04 19:32 |
|---|---|
| Airport | Netaji Subhash Chandra Bose International Airport (VECC) |
Arrival
| Time | N/A |
|---|---|
| Airport | Paro International Airport (VQPR) |
| Time | Latitude | Longitude | Altitude | Speed | Heading |
|---|---|---|---|---|---|
| 2026-05-04 19:22 | 22.64256 | 88.44032 | 28 ft | 0 kts | 274° |
| 2026-05-04 19:26 | 22.64254 | 88.44050 | 28 ft | 3 kts | 275° |
| 2026-05-04 19:27 | 22.64253 | 88.44072 | 24 ft | 3 kts | 265° |
| 2026-05-04 19:27 | 22.64256 | 88.44093 | 28 ft | 3 kts | 249° |
| 2026-05-04 19:27 | 22.64262 | 88.44107 | 26 ft | 1 kts | 236° |
| 2026-05-04 19:27 | 22.64263 | 88.44108 | 25 ft | 0 kts | 236° |
| 2026-05-04 19:29 | 22.64262 | 88.44108 | 26 ft | 1 kts | 235° |
| 2026-05-04 19:29 | 22.64249 | 88.44105 | 26 ft | 2 kts | 164° |
| 2026-05-04 19:29 | 22.64235 | 88.44121 | 24 ft | 4 kts | 137° |
| 2026-05-04 19:29 | 22.64211 | 88.44152 | 24 ft | 6 kts | 126° |
| 2026-05-04 19:30 | 22.64184 | 88.44199 | 24 ft | 8 kts | 116° |
| 2026-05-04 19:30 | 22.64169 | 88.44266 | 26 ft | 10 kts | 94° |
| 2026-05-04 19:30 | 22.64177 | 88.44348 | 24 ft | 12 kts | 73° |
| 2026-05-04 19:30 | 22.64210 | 88.44429 | 25 ft | 12 kts | 66° |
| 2026-05-04 19:31 | 22.64241 | 88.44519 | 25 ft | 14 kts | 68° |
| 2026-05-04 19:31 | 22.64282 | 88.44618 | 26 ft | 15 kts | 61° |
| 2026-05-04 19:31 | 22.64375 | 88.44649 | 25 ft | 18 kts | 6° |
| 2026-05-04 19:31 | 22.64746 | 88.44691 | 22 ft | 91 kts | 6° |
| 2026-05-04 19:32 | 22.65594 | 88.44789 | 27 ft | 150 kts | 6° |
| 2026-05-04 19:32 | 22.66748 | 88.44921 | 376 ft | 173 kts | 6° |
| 2026-05-04 19:32 | 22.67957 | 88.45083 | 1089 ft | 176 kts | 7° |
| 2026-05-04 19:32 | 22.69240 | 88.45252 | 1490 ft | 199 kts | 6° |
| 2026-05-04 19:33 | 22.70696 | 88.45438 | 1846 ft | 223 kts | 6° |
| 2026-05-04 19:33 | 22.72295 | 88.45635 | 2291 ft | 246 kts | 6° |
| 2026-05-04 19:33 | 22.74079 | 88.45850 | 2777 ft | 270 kts | 6° |
| 2026-05-04 19:33 | 22.75986 | 88.46080 | 3545 ft | 280 kts | 6° |
| 2026-05-04 19:34 | 22.77938 | 88.46247 | 4481 ft | 284 kts | 359° |
| 2026-05-04 19:34 | 22.79922 | 88.46059 | 5418 ft | 287 kts | 351° |
| 2026-05-04 19:34 | 22.81899 | 88.45665 | 6375 ft | 290 kts | 348° |
| 2026-05-04 19:34 | 22.83877 | 88.45203 | 7267 ft | 292 kts | 347° |
| 2026-05-04 19:35 | 22.85877 | 88.44735 | 8180 ft | 295 kts | 348° |
| 2026-05-04 19:35 | 22.87894 | 88.44284 | 9085 ft | 297 kts | 348° |
| 2026-05-04 19:35 | 22.89935 | 88.43852 | 9957 ft | 300 kts | 349° |
| 2026-05-04 19:35 | 22.92003 | 88.43433 | 10761 ft | 304 kts | 349° |
| 2026-05-04 19:36 | 22.94146 | 88.43011 | 11167 ft | 325 kts | 349° |
| 2026-05-04 19:36 | 22.96455 | 88.42565 | 11429 ft | 348 kts | 349° |
| 2026-05-04 19:36 | 22.98906 | 88.42096 | 11821 ft | 365 kts | 349° |
| 2026-05-04 19:36 | 23.01429 | 88.41616 | 12485 ft | 371 kts | 349° |
| 2026-05-04 19:37 | 23.03985 | 88.41127 | 13204 ft | 375 kts | 349° |
| 2026-05-04 19:37 | 23.06572 | 88.40631 | 13911 ft | 379 kts | 349° |
| 2026-05-04 19:37 | 23.09182 | 88.40131 | 14563 ft | 383 kts | 348° |
| 2026-05-04 19:37 | 23.11820 | 88.39626 | 15194 ft | 388 kts | 348° |
| 2026-05-04 19:38 | 23.14492 | 88.39113 | 15826 ft | 392 kts | 348° |
| 2026-05-04 19:38 | 23.17190 | 88.38594 | 16475 ft | 395 kts | 347° |
| 2026-05-04 19:38 | 23.19919 | 88.38135 | 17117 ft | 400 kts | 353° |
| 2026-05-04 19:38 | 23.22723 | 88.38352 | 17751 ft | 409 kts | 7° |
| 2026-05-04 19:39 | 23.25538 | 88.38889 | 18372 ft | 412 kts | 7° |
| 2026-05-04 19:39 | 23.28338 | 88.39451 | 18891 ft | 416 kts | 8° |
| 2026-05-04 19:39 | 23.31127 | 88.40540 | 19408 ft | 427 kts | 26° |
| 2026-05-04 19:39 | 23.33664 | 88.42170 | 19933 ft | 431 kts | 27° |
| 2026-05-04 19:40 | 23.36312 | 88.43695 | 20463 ft | 434 kts | 24° |
| 2026-05-04 19:40 | 23.39018 | 88.45163 | 20962 ft | 436 kts | 21° |
| 2026-05-04 19:40 | 23.41820 | 88.46463 | 21452 ft | 439 kts | 19° |
| 2026-05-04 19:40 | 23.44654 | 88.47738 | 21936 ft | 443 kts | 19° |
| 2026-05-04 19:41 | 23.47521 | 88.49011 | 22377 ft | 447 kts | 19° |
| 2026-05-04 19:41 | 23.50415 | 88.50297 | 22844 ft | 451 kts | 19° |
| 2026-05-04 19:41 | 23.53342 | 88.51600 | 23302 ft | 455 kts | 19° |
| 2026-05-04 19:41 | 23.56283 | 88.52912 | 23701 ft | 459 kts | 19° |
| 2026-05-04 19:42 | 23.59243 | 88.54236 | 24085 ft | 461 kts | 19° |
| 2026-05-04 19:42 | 23.62215 | 88.55570 | 24489 ft | 463 kts | 19° |
| 2026-05-04 19:42 | 23.65202 | 88.56917 | 24878 ft | 465 kts | 19° |
| 2026-05-04 19:42 | 23.68155 | 88.58415 | 25256 ft | 471 kts | 27° |
| 2026-05-04 19:43 | 23.70956 | 88.60296 | 25648 ft | 473 kts | 29° |
| 2026-05-04 19:43 | 23.73747 | 88.62213 | 26040 ft | 475 kts | 29° |
| 2026-05-04 19:43 | 23.76561 | 88.64130 | 26449 ft | 477 kts | 30° |
| 2026-05-04 19:43 | 23.79400 | 88.66022 | 26834 ft | 479 kts | 29° |
| 2026-05-04 19:44 | 23.82269 | 88.67902 | 27190 ft | 481 kts | 26° |
| 2026-05-04 19:44 | 23.85240 | 88.69581 | 27546 ft | 482 kts | 25° |
| 2026-05-04 19:44 | 23.88251 | 88.71242 | 27905 ft | 485 kts | 24° |
| 2026-05-04 19:44 | 23.91271 | 88.72910 | 28247 ft | 487 kts | 24° |
| 2026-05-04 19:45 | 23.94296 | 88.74584 | 28581 ft | 489 kts | 24° |
| 2026-05-04 19:45 | 23.97344 | 88.76274 | 28908 ft | 492 kts | 24° |
| 2026-05-04 19:45 | 24.00361 | 88.77950 | 29227 ft | 494 kts | 24° |
| 2026-05-04 19:45 | 24.03473 | 88.79683 | 29550 ft | 496 kts | 24° |
| 2026-05-04 19:46 | 24.06559 | 88.81259 | 29949 ft | 494 kts | 17° |
| 2026-05-04 19:46 | 24.09915 | 88.82108 | 30340 ft | 488 kts | 2° |
| 2026-05-04 19:46 | 24.13253 | 88.82331 | 30720 ft | 485 kts | 360° |
| 2026-05-04 19:46 | 24.16622 | 88.82515 | 31120 ft | 484 kts | 359° |
| 2026-05-04 19:47 | 24.19985 | 88.82688 | 31524 ft | 483 kts | 359° |
| 2026-05-04 19:47 | 24.23345 | 88.82856 | 31936 ft | 482 kts | 359° |
| 2026-05-04 19:47 | 24.26691 | 88.83023 | 32358 ft | 481 kts | 359° |
| 2026-05-04 19:47 | 24.30031 | 88.83192 | 32780 ft | 480 kts | 359° |
| 2026-05-04 19:48 | 24.33358 | 88.83362 | 33209 ft | 479 kts | 359° |
| 2026-05-04 19:48 | 24.36682 | 88.83536 | 33637 ft | 478 kts | 359° |
| 2026-05-04 19:48 | 24.40006 | 88.83713 | 34033 ft | 478 kts | 359° |
| 2026-05-04 19:48 | 24.43338 | 88.83891 | 34283 ft | 481 kts | 359° |
| 2026-05-04 19:49 | 24.46682 | 88.84070 | 34606 ft | 482 kts | 359° |
| 2026-05-04 19:49 | 24.50038 | 88.84248 | 34874 ft | 482 kts | 359° |
| 2026-05-04 19:49 | 24.53391 | 88.84424 | 34931 ft | 483 kts | 359° |
| 2026-05-04 19:50 | 24.60114 | 88.84770 | 34946 ft | 484 kts | 358° |
| 2026-05-04 19:50 | 24.66848 | 88.85121 | 34931 ft | 484 kts | 359° |
| 2026-05-04 19:51 | 24.73546 | 88.85486 | 34935 ft | 484 kts | 358° |
| 2026-05-04 19:51 | 24.80250 | 88.85840 | 34920 ft | 481 kts | 358° |
| 2026-05-04 19:52 | 24.86943 | 88.86191 | 34921 ft | 481 kts | 358° |
| 2026-05-04 19:52 | 24.93630 | 88.86542 | 34909 ft | 481 kts | 358° |
| 2026-05-04 19:53 | 25.00324 | 88.86889 | 34907 ft | 481 kts | 358° |
| 2026-05-04 19:53 | 25.07022 | 88.87240 | 34893 ft | 482 kts | 358° |
| 2026-05-04 19:54 | 25.13731 | 88.87597 | 34888 ft | 483 kts | 358° |
| 2026-05-04 19:54 | 25.20454 | 88.87957 | 34886 ft | 484 kts | 358° |
| 2026-05-04 19:55 | 25.26057 | 88.88255 | 34884 ft | 484 kts | 358° |
| 2026-05-04 19:55 | 25.32741 | 88.89324 | 34885 ft | 496 kts | 17° |
| 2026-05-04 19:56 | 25.39146 | 88.92203 | 34892 ft | 497 kts | 18° |
| 2026-05-04 19:56 | 25.45542 | 88.95143 | 34891 ft | 498 kts | 19° |
| 2026-05-04 19:57 | 25.51941 | 88.98086 | 34888 ft | 498 kts | 18° |
| 2026-05-04 19:57 | 25.58350 | 89.01016 | 34655 ft | 499 kts | 18° |
| 2026-05-04 19:57 | 25.61557 | 89.02482 | 34450 ft | 499 kts | 19° |
| 2026-05-04 19:58 | 25.64765 | 89.03953 | 34256 ft | 500 kts | 19° |
| 2026-05-04 19:58 | 25.67987 | 89.05431 | 34055 ft | 501 kts | 19° |
| 2026-05-04 19:58 | 25.71215 | 89.06911 | 33854 ft | 502 kts | 19° |
| 2026-05-04 19:58 | 25.74441 | 89.08394 | 33618 ft | 502 kts | 19° |
| 2026-05-04 19:59 | 25.77668 | 89.09879 | 33384 ft | 502 kts | 19° |
| 2026-05-04 19:59 | 25.80859 | 89.11347 | 33161 ft | 503 kts | 19° |
| 2026-05-04 19:59 | 25.84091 | 89.12835 | 32934 ft | 503 kts | 19° |
| 2026-05-04 19:59 | 25.87324 | 89.14327 | 32716 ft | 503 kts | 19° |
| 2026-05-04 20:00 | 25.90557 | 89.15821 | 32484 ft | 504 kts | 19° |
| 2026-05-04 20:00 | 25.93796 | 89.17317 | 32267 ft | 504 kts | 19° |
| 2026-05-04 20:00 | 25.97038 | 89.18812 | 32060 ft | 505 kts | 19° |
| 2026-05-04 20:00 | 26.00289 | 89.20310 | 31843 ft | 506 kts | 19° |
| 2026-05-04 20:01 | 26.03545 | 89.21812 | 31610 ft | 507 kts | 19° |
| 2026-05-04 20:01 | 26.06797 | 89.23330 | 31295 ft | 508 kts | 21° |
| 2026-05-04 20:01 | 26.09889 | 89.25241 | 30909 ft | 509 kts | 31° |
| 2026-05-04 20:01 | 26.12671 | 89.27697 | 30542 ft | 510 kts | 38° |
| 2026-05-04 20:02 | 26.15363 | 89.30274 | 30179 ft | 510 kts | 38° |
| 2026-05-04 20:02 | 26.18058 | 89.32849 | 29792 ft | 511 kts | 38° |
| 2026-05-04 20:02 | 26.20756 | 89.35422 | 29355 ft | 511 kts | 38° |
| 2026-05-04 20:02 | 26.23454 | 89.37990 | 28909 ft | 510 kts | 38° |
| 2026-05-04 20:03 | 26.26154 | 89.40558 | 28482 ft | 510 kts | 38° |
| 2026-05-04 20:03 | 26.28851 | 89.43127 | 28049 ft | 510 kts | 38° |
| 2026-05-04 20:03 | 26.31538 | 89.45693 | 27623 ft | 509 kts | 38° |
| 2026-05-04 20:03 | 26.34352 | 89.48068 | 27201 ft | 504 kts | 30° |
| 2026-05-04 20:04 | 26.37331 | 89.50101 | 26790 ft | 500 kts | 28° |
| 2026-05-04 20:04 | 26.40293 | 89.52106 | 26387 ft | 497 kts | 28° |
| 2026-05-04 20:04 | 26.43233 | 89.54101 | 25957 ft | 493 kts | 28° |
| 2026-05-04 20:04 | 26.46146 | 89.56085 | 25492 ft | 488 kts | 28° |
| 2026-05-04 20:05 | 26.49037 | 89.58056 | 25032 ft | 484 kts | 28° |
| 2026-05-04 20:05 | 26.51900 | 89.60011 | 24599 ft | 480 kts | 28° |
| 2026-05-04 20:05 | 26.54732 | 89.61950 | 24157 ft | 476 kts | 28° |
| 2026-05-04 20:05 | 26.57545 | 89.63878 | 23729 ft | 472 kts | 28° |
| 2026-05-04 20:06 | 26.60336 | 89.65790 | 23262 ft | 468 kts | 28° |
| 2026-05-04 20:06 | 26.63093 | 89.67677 | 22742 ft | 459 kts | 28° |
| 2026-05-04 20:06 | 26.65758 | 89.69505 | 22225 ft | 440 kts | 28° |
| 2026-05-04 20:06 | 26.68415 | 89.71037 | 21716 ft | 421 kts | 17° |
| 2026-05-04 20:07 | 26.71166 | 89.71912 | 21268 ft | 403 kts | 6° |
| 2026-05-04 20:07 | 26.73893 | 89.72196 | 20827 ft | 385 kts | 355° |
| 2026-05-04 20:07 | 26.76451 | 89.71954 | 20622 ft | 361 kts | 346° |
| 2026-05-04 20:07 | 26.78819 | 89.71283 | 20364 ft | 341 kts | 336° |
| 2026-05-04 20:08 | 26.80950 | 89.70242 | 19917 ft | 330 kts | 328° |
| 2026-05-04 20:08 | 26.82959 | 89.69036 | 19412 ft | 326 kts | 328° |
| 2026-05-04 20:08 | 26.84941 | 89.67828 | 18917 ft | 322 kts | 325° |
| 2026-05-04 20:08 | 26.86761 | 89.66405 | 18436 ft | 316 kts | 317° |
| 2026-05-04 20:09 | 26.88350 | 89.64750 | 17959 ft | 309 kts | 309° |
| 2026-05-04 20:09 | 26.89801 | 89.62986 | 17462 ft | 305 kts | 309° |
| 2026-05-04 20:09 | 26.91214 | 89.61278 | 17278 ft | 292 kts | 309° |
| 2026-05-04 20:09 | 26.92562 | 89.59653 | 17148 ft | 278 kts | 310° |
| 2026-05-04 20:10 | 26.93843 | 89.58105 | 17025 ft | 262 kts | 309° |
| 2026-05-04 20:10 | 26.95054 | 89.56660 | 16916 ft | 247 kts | 313° |
| 2026-05-04 20:10 | 26.96374 | 89.55489 | 16814 ft | 236 kts | 323° |
| 2026-05-04 20:10 | 26.97827 | 89.54668 | 16694 ft | 233 kts | 334° |
| 2026-05-04 20:11 | 26.99400 | 89.54180 | 16636 ft | 237 kts | 345° |
| 2026-05-04 20:11 | 27.01040 | 89.53973 | 16539 ft | 237 kts | 348° |
| 2026-05-04 20:11 | 27.02687 | 89.53782 | 16431 ft | 238 kts | 348° |
| 2026-05-04 20:11 | 27.04334 | 89.53589 | 16316 ft | 237 kts | 349° |
| 2026-05-04 20:12 | 27.05981 | 89.53395 | 16212 ft | 238 kts | 349° |
| 2026-05-04 20:12 | 27.07628 | 89.53199 | 16113 ft | 239 kts | 349° |
| 2026-05-04 20:12 | 27.09281 | 89.53001 | 16011 ft | 238 kts | 349° |
| 2026-05-04 20:12 | 27.10928 | 89.52807 | 15804 ft | 239 kts | 350° |
| 2026-05-04 20:13 | 27.12622 | 89.52607 | 15230 ft | 249 kts | 350° |
| 2026-05-04 20:13 | 27.14329 | 89.52408 | 14678 ft | 251 kts | 351° |
| 2026-05-04 20:13 | 27.16086 | 89.52203 | 14148 ft | 250 kts | 351° |
| 2026-05-04 20:13 | 27.17809 | 89.52003 | 13617 ft | 248 kts | 353° |
| 2026-05-04 20:14 | 27.19508 | 89.51805 | 13049 ft | 249 kts | 354° |
| 2026-05-04 20:14 | 27.21224 | 89.51616 | 12502 ft | 247 kts | 356° |
| 2026-05-04 20:14 | 27.22927 | 89.51684 | 12070 ft | 242 kts | 7° |
| 2026-05-04 20:14 | 27.24495 | 89.52075 | 12033 ft | 221 kts | 17° |
| 2026-05-04 20:15 | 27.25847 | 89.52681 | 11962 ft | 197 kts | 26° |
| 2026-05-04 20:15 | 27.26998 | 89.53366 | 11879 ft | 182 kts | 27° |
| 2026-05-04 20:15 | 27.28110 | 89.54019 | 11803 ft | 179 kts | 26° |
| 2026-05-04 20:15 | 27.29301 | 89.54379 | 11719 ft | 178 kts | 4° |
| 2026-05-04 20:16 | 27.30526 | 89.54247 | 11663 ft | 177 kts | 344° |
| 2026-05-04 20:16 | 27.31624 | 89.53642 | 11613 ft | 176 kts | 323° |
| 2026-05-04 20:16 | 27.32462 | 89.52649 | 11543 ft | 175 kts | 303° |
| 2026-05-04 20:16 | 27.32926 | 89.51446 | 11429 ft | 163 kts | 284° |
| 2026-05-04 20:17 | 27.33042 | 89.50200 | 11198 ft | 159 kts | 267° |
| 2026-05-04 20:17 | 27.32997 | 89.48966 | 10891 ft | 157 kts | 276° |
| 2026-05-04 20:17 | 27.33237 | 89.47774 | 10621 ft | 156 kts | 287° |
| 2026-05-04 20:17 | 27.33727 | 89.46691 | 10294 ft | 156 kts | 308° |
| 2026-05-04 20:18 | 27.34599 | 89.45986 | 9941 ft | 154 kts | 332° |
| 2026-05-04 20:18 | 27.35565 | 89.45427 | 9402 ft | 161 kts | 334° |
| 2026-05-04 20:18 | 27.36582 | 89.44852 | 8830 ft | 167 kts | 333° |
| 2026-05-04 20:18 | 27.37657 | 89.44279 | 8172 ft | 176 kts | 333° |
| 2026-05-04 20:19 | 27.38711 | 89.43506 | 7535 ft | 181 kts | 325° |
| 2026-05-04 20:19 | 27.39741 | 89.42848 | 7437 ft | 163 kts | 332° |
| 2026-05-04 20:19 | 27.40774 | 89.42231 | 7919 ft | 170 kts | 331° |
| 2026-05-04 20:19 | 27.41614 | 89.41300 | 8399 ft | 178 kts | 298° |
| 2026-05-04 20:20 | 27.42204 | 89.40006 | 9039 ft | 189 kts | 297° |
| 2026-05-04 20:20 | 27.42738 | 89.38684 | 9689 ft | 192 kts | 290° |
| 2026-05-04 20:20 | 27.43092 | 89.37194 | 10445 ft | 201 kts | 279° |
| 2026-05-04 20:20 | 27.43166 | 89.35627 | 11279 ft | 200 kts | 261° |
| 2026-05-04 20:21 | 27.42822 | 89.34122 | 12161 ft | 199 kts | 251° |
| 2026-05-04 20:21 | 27.42341 | 89.32698 | 13098 ft | 191 kts | 247° |
| 2026-05-04 20:21 | 27.40952 | 89.29895 | 14074 ft | 230 kts | 218° |
| 2026-05-04 20:22 | 27.39466 | 89.29264 | 14588 ft | 234 kts | 184° |
| 2026-05-04 20:22 | 27.37846 | 89.29545 | 15123 ft | 237 kts | 170° |
| 2026-05-04 20:22 | 27.36211 | 89.29810 | 15665 ft | 238 kts | 176° |
| 2026-05-04 20:22 | 27.34559 | 89.29993 | 16121 ft | 239 kts | 178° |
| 2026-05-04 20:23 | 27.32888 | 89.30170 | 16630 ft | 242 kts | 179° |
| 2026-05-04 20:23 | 27.31200 | 89.30348 | 16964 ft | 246 kts | 180° |
| 2026-05-04 20:23 | 27.29496 | 89.30550 | 17013 ft | 248 kts | 174° |
| 2026-05-04 20:23 | 27.27846 | 89.31169 | 17018 ft | 253 kts | 158° |
| 2026-05-04 20:24 | 27.26371 | 89.32276 | 17016 ft | 258 kts | 142° |
| 2026-05-04 20:24 | 27.25189 | 89.33806 | 17014 ft | 262 kts | 126° |
| 2026-05-04 20:24 | 27.24410 | 89.35630 | 16974 ft | 265 kts | 109° |
| 2026-05-04 20:24 | 27.23877 | 89.37628 | 16854 ft | 261 kts | 108° |
| 2026-05-04 20:25 | 27.23355 | 89.39563 | 16603 ft | 255 kts | 109° |
| 2026-05-04 20:25 | 27.22653 | 89.41351 | 16245 ft | 247 kts | 121° |
| 2026-05-04 20:25 | 27.21822 | 89.43029 | 15812 ft | 246 kts | 121° |
| 2026-05-04 20:25 | 27.20988 | 89.44711 | 15363 ft | 246 kts | 121° |
| 2026-05-04 20:26 | 27.20177 | 89.46393 | 14926 ft | 244 kts | 116° |
| 2026-05-04 20:26 | 27.19799 | 89.48234 | 14560 ft | 242 kts | 92° |
| 2026-05-04 20:26 | 27.20062 | 89.50075 | 14215 ft | 239 kts | 70° |
| 2026-05-04 20:26 | 27.21016 | 89.51530 | 13904 ft | 232 kts | 33° |
| 2026-05-04 20:27 | 27.22522 | 89.52040 | 13581 ft | 226 kts | 5° |
| 2026-05-04 20:27 | 27.24069 | 89.52216 | 13260 ft | 219 kts | 7° |
| 2026-05-04 20:27 | 27.25486 | 89.52611 | 12856 ft | 206 kts | 19° |
| 2026-05-04 20:27 | 27.26764 | 89.53260 | 12447 ft | 196 kts | 26° |
| 2026-05-04 20:28 | 27.27949 | 89.53935 | 12026 ft | 187 kts | 27° |
| 2026-05-04 20:28 | 27.29156 | 89.54360 | 11594 ft | 179 kts | 6° |
| 2026-05-04 20:28 | 27.30339 | 89.54283 | 11451 ft | 158 kts | 346° |
| 2026-05-04 20:28 | 27.31298 | 89.53853 | 11294 ft | 144 kts | 328° |
| 2026-05-04 20:29 | 27.32073 | 89.53159 | 10945 ft | 144 kts | 312° |
| 2026-05-04 20:29 | 27.32640 | 89.52234 | 10643 ft | 144 kts | 296° |
| 2026-05-04 20:29 | 27.32940 | 89.51140 | 10465 ft | 157 kts | 279° |
| 2026-05-04 20:29 | 27.33009 | 89.49849 | 10308 ft | 174 kts | 268° |
| 2026-05-04 20:30 | 27.33051 | 89.48493 | 10146 ft | 164 kts | 280° |
| 2026-05-04 20:30 | 27.33415 | 89.47327 | 9991 ft | 158 kts | 303° |
| 2026-05-04 20:30 | 27.34261 | 89.46592 | 9743 ft | 157 kts | 343° |
| 2026-05-04 20:30 | 27.35366 | 89.46379 | 9099 ft | 168 kts | 350° |
| 2026-05-04 20:31 | 27.36511 | 89.46098 | 8608 ft | 168 kts | 344° |
| 2026-05-04 20:31 | 27.37580 | 89.45622 | 8209 ft | 163 kts | 326° |
| 2026-05-04 20:31 | 27.38242 | 89.44657 | 7906 ft | 156 kts | 291° |
| 2026-05-04 20:31 | 27.38579 | 89.43535 | 7589 ft | 147 kts | 307° |
| 2026-05-04 20:32 | 27.39534 | 89.42997 | 7407 ft | 158 kts | 337° |
| 2026-05-04 20:32 | 27.40519 | 89.42407 | 7737 ft | 163 kts | 330° |
| 2026-05-04 20:32 | 27.41492 | 89.41744 | 8357 ft | 168 kts | 328° |
| 2026-05-04 20:32 | 27.42402 | 89.40826 | 8578 ft | 187 kts | 307° |
| 2026-05-04 20:33 | 27.43254 | 89.39608 | 8874 ft | 206 kts | 309° |
| 2026-05-04 20:33 | 27.44191 | 89.38335 | 9443 ft | 214 kts | 310° |
| 2026-05-04 20:33 | 27.45160 | 89.37042 | 10094 ft | 217 kts | 313° |
| 2026-05-04 20:33 | 27.46247 | 89.35849 | 10674 ft | 219 kts | 316° |
| 2026-05-04 20:34 | 27.47274 | 89.34563 | 11393 ft | 222 kts | 306° |
| 2026-05-04 20:34 | 27.47998 | 89.33040 | 12216 ft | 226 kts | 289° |
| 2026-05-04 20:34 | 27.48268 | 89.31270 | 13044 ft | 229 kts | 269° |
| 2026-05-04 20:34 | 27.48009 | 89.29519 | 13946 ft | 232 kts | 251° |
| 2026-05-04 20:35 | 27.47242 | 89.27906 | 14583 ft | 236 kts | 232° |
| 2026-05-04 20:35 | 27.46010 | 89.26601 | 15012 ft | 256 kts | 214° |
| 2026-05-04 20:35 | 27.44279 | 89.25786 | 15126 ft | 290 kts | 192° |
| 2026-05-04 20:35 | 27.42173 | 89.25818 | 15158 ft | 309 kts | 168° |
| 2026-05-04 20:36 | 27.40251 | 89.26829 | 15200 ft | 309 kts | 147° |
| 2026-05-04 20:36 | 27.38385 | 89.28066 | 15868 ft | 311 kts | 161° |
| 2026-05-04 20:36 | 27.36284 | 89.28559 | 16589 ft | 309 kts | 183° |
| 2026-05-04 20:36 | 27.34185 | 89.28152 | 17267 ft | 307 kts | 205° |
| 2026-05-04 20:37 | 27.32918 | 89.27413 | 17486 ft | 314 kts | 220° |
| 2026-05-04 20:37 | 27.31413 | 89.25585 | 17857 ft | 325 kts | 239° |
| 2026-05-04 20:37 | 27.30177 | 89.23427 | 18481 ft | 331 kts | 240° |
| 2026-05-04 20:37 | 27.28908 | 89.21257 | 19093 ft | 333 kts | 239° |
| 2026-05-04 20:38 | 27.27616 | 89.19082 | 19721 ft | 336 kts | 239° |
| 2026-05-04 20:38 | 27.26300 | 89.16884 | 20376 ft | 341 kts | 239° |
| 2026-05-04 20:38 | 27.24968 | 89.14660 | 20971 ft | 345 kts | 238° |
| 2026-05-04 20:38 | 27.23624 | 89.12412 | 21599 ft | 348 kts | 238° |
| 2026-05-04 20:39 | 27.22248 | 89.10099 | 21753 ft | 364 kts | 238° |
| 2026-05-04 20:39 | 27.20815 | 89.07683 | 21875 ft | 381 kts | 238° |
| 2026-05-04 20:39 | 27.19319 | 89.05165 | 22003 ft | 394 kts | 238° |
| 2026-05-04 20:39 | 27.17767 | 89.02558 | 22128 ft | 408 kts | 238° |
| 2026-05-04 20:40 | 27.16162 | 88.99870 | 22323 ft | 418 kts | 238° |
| 2026-05-04 20:40 | 27.14536 | 88.97149 | 22805 ft | 421 kts | 238° |
| 2026-05-04 20:40 | 27.12914 | 88.94418 | 23430 ft | 420 kts | 238° |
| 2026-05-04 20:40 | 27.11298 | 88.91682 | 23973 ft | 419 kts | 238° |
| 2026-05-04 20:41 | 27.09695 | 88.88956 | 24523 ft | 417 kts | 238° |
| 2026-05-04 20:41 | 27.08111 | 88.86255 | 25194 ft | 412 kts | 238° |
| 2026-05-04 20:41 | 27.06572 | 88.83615 | 25936 ft | 405 kts | 238° |
| 2026-05-04 20:41 | 27.05057 | 88.80987 | 26765 ft | 397 kts | 238° |
| 2026-05-04 20:42 | 27.03579 | 88.78393 | 27526 ft | 392 kts | 238° |
| 2026-05-04 20:42 | 27.02125 | 88.75820 | 28271 ft | 387 kts | 238° |
| 2026-05-04 20:42 | 27.00702 | 88.73280 | 29009 ft | 382 kts | 238° |
| 2026-05-04 20:42 | 26.99299 | 88.70765 | 29758 ft | 378 kts | 238° |
| 2026-05-04 20:43 | 26.97922 | 88.68273 | 30432 ft | 374 kts | 238° |
| 2026-05-04 20:43 | 26.96553 | 88.65795 | 30802 ft | 372 kts | 238° |
| 2026-05-04 20:43 | 26.95175 | 88.63320 | 30930 ft | 377 kts | 238° |
| 2026-05-04 20:43 | 26.93763 | 88.60793 | 30961 ft | 388 kts | 237° |
| 2026-05-04 20:44 | 26.92312 | 88.58185 | 30961 ft | 400 kts | 238° |
| 2026-05-04 20:44 | 26.90828 | 88.55514 | 30964 ft | 407 kts | 238° |
| 2026-05-04 20:44 | 26.87836 | 88.50137 | 30963 ft | 410 kts | 238° |
| 2026-05-04 20:45 | 26.84819 | 88.44695 | 30944 ft | 412 kts | 238° |
| 2026-05-04 20:45 | 26.81821 | 88.39214 | 30951 ft | 413 kts | 238° |
| 2026-05-04 20:46 | 26.78822 | 88.33729 | 30942 ft | 413 kts | 238° |
| 2026-05-04 20:46 | 26.75818 | 88.28235 | 30954 ft | 413 kts | 238° |
| 2026-05-04 20:47 | 26.72818 | 88.22746 | 30935 ft | 413 kts | 238° |
| 2026-05-04 20:47 | 26.69814 | 88.17250 | 30897 ft | 413 kts | 238° |
| 2026-05-04 20:48 | 26.66815 | 88.11759 | 30934 ft | 413 kts | 238° |
| 2026-05-04 20:48 | 26.63836 | 88.06266 | 30934 ft | 413 kts | 238° |
| 2026-05-04 20:49 | 26.60906 | 88.00788 | 30914 ft | 413 kts | 238° |
| 2026-05-04 20:49 | 26.57959 | 87.95280 | 30920 ft | 413 kts | 238° |
| 2026-05-04 20:50 | 26.55014 | 87.89772 | 30916 ft | 413 kts | 238° |
| 2026-05-04 20:50 | 26.52056 | 87.84226 | 30923 ft | 416 kts | 238° |
| 2026-05-04 20:51 | 26.49091 | 87.78662 | 30920 ft | 417 kts | 238° |
| 2026-05-04 20:51 | 26.46125 | 87.73097 | 30912 ft | 417 kts | 238° |
| 2026-05-04 20:52 | 26.43174 | 87.67526 | 30915 ft | 417 kts | 238° |
| 2026-05-04 20:52 | 26.40249 | 87.61945 | 30916 ft | 417 kts | 238° |
| 2026-05-04 20:53 | 26.37326 | 87.56368 | 30912 ft | 416 kts | 238° |
| 2026-05-04 20:53 | 26.34401 | 87.50787 | 30910 ft | 416 kts | 238° |
| 2026-05-04 20:54 | 26.31468 | 87.45224 | 30912 ft | 416 kts | 237° |
| 2026-05-04 20:54 | 26.28390 | 87.39756 | 30909 ft | 416 kts | 236° |
| 2026-05-04 20:55 | 26.25253 | 87.34334 | 30909 ft | 416 kts | 236° |
| 2026-05-04 20:55 | 26.22126 | 87.28887 | 30894 ft | 420 kts | 236° |
| 2026-05-04 20:56 | 26.18992 | 87.23362 | 30904 ft | 423 kts | 236° |
| 2026-05-04 20:56 | 26.15863 | 87.17857 | 30904 ft | 423 kts | 236° |
| 2026-05-04 20:57 | 26.12683 | 87.12298 | 30904 ft | 423 kts | 236° |
| 2026-05-04 20:57 | 26.09521 | 87.06776 | 30892 ft | 423 kts | 236° |
| 2026-05-04 20:58 | 26.06385 | 87.01277 | 30893 ft | 423 kts | 236° |
| 2026-05-04 20:58 | 26.03221 | 86.95751 | 30893 ft | 423 kts | 236° |
| 2026-05-04 20:59 | 26.00069 | 86.90257 | 30895 ft | 419 kts | 236° |
| 2026-05-04 20:59 | 25.96935 | 86.84802 | 30884 ft | 418 kts | 236° |
| 2026-05-04 21:00 | 25.93809 | 86.79350 | 30884 ft | 418 kts | 236° |
| 2026-05-04 21:00 | 25.90678 | 86.73914 | 30882 ft | 418 kts | 235° |
| 2026-05-04 21:01 | 25.87526 | 86.68452 | 30882 ft | 420 kts | 235° |
| 2026-05-04 21:01 | 25.84377 | 86.62987 | 30877 ft | 420 kts | 235° |
| 2026-05-04 21:02 | 25.81244 | 86.57555 | 30878 ft | 420 kts | 235° |
| 2026-05-04 21:02 | 25.78094 | 86.52107 | 30876 ft | 419 kts | 235° |
| 2026-05-04 21:03 | 25.74949 | 86.46665 | 30870 ft | 419 kts | 235° |
| 2026-05-04 21:03 | 25.71801 | 86.41226 | 30865 ft | 419 kts | 235° |
| 2026-05-04 21:04 | 25.68643 | 86.35806 | 30866 ft | 418 kts | 235° |
| 2026-05-04 21:04 | 25.65484 | 86.30370 | 30743 ft | 420 kts | 235° |
| 2026-05-04 21:05 | 25.63908 | 86.27651 | 30371 ft | 419 kts | 235° |
| 2026-05-04 21:05 | 25.62330 | 86.24932 | 30010 ft | 420 kts | 235° |
| 2026-05-04 21:05 | 25.60747 | 86.22212 | 29590 ft | 421 kts | 235° |
| 2026-05-04 21:05 | 25.59158 | 86.19482 | 29163 ft | 422 kts | 236° |
| 2026-05-04 21:06 | 25.57559 | 86.16742 | 28741 ft | 425 kts | 235° |
| 2026-05-04 21:06 | 25.55955 | 86.13993 | 28328 ft | 425 kts | 235° |
| 2026-05-04 21:06 | 25.54346 | 86.11238 | 27922 ft | 426 kts | 236° |
| 2026-05-04 21:06 | 25.52735 | 86.08479 | 27521 ft | 427 kts | 236° |
| 2026-05-04 21:07 | 25.51119 | 86.05712 | 27126 ft | 428 kts | 236° |
| 2026-05-04 21:07 | 25.49498 | 86.02938 | 26545 ft | 430 kts | 236° |
| 2026-05-04 21:07 | 25.47870 | 86.00155 | 25925 ft | 431 kts | 236° |
| 2026-05-04 21:07 | 25.46253 | 85.97397 | 25326 ft | 433 kts | 236° |
| 2026-05-04 21:08 | 25.44611 | 85.94593 | 24731 ft | 435 kts | 237° |
| 2026-05-04 21:08 | 25.42963 | 85.91780 | 24144 ft | 437 kts | 237° |
| 2026-05-04 21:08 | 25.41305 | 85.88953 | 23540 ft | 439 kts | 237° |
| 2026-05-04 21:08 | 25.39643 | 85.86119 | 22782 ft | 441 kts | 237° |
| 2026-05-04 21:09 | 25.37968 | 85.83260 | 22010 ft | 444 kts | 237° |
| 2026-05-04 21:09 | 25.36281 | 85.80388 | 21256 ft | 444 kts | 238° |
| 2026-05-04 21:09 | 25.34621 | 85.77567 | 20533 ft | 430 kts | 238° |
| 2026-05-04 21:09 | 25.33025 | 85.74852 | 20027 ft | 412 kts | 238° |
| 2026-05-04 21:10 | 25.31486 | 85.72241 | 19535 ft | 399 kts | 238° |
| 2026-05-04 21:10 | 25.29986 | 85.69702 | 19051 ft | 389 kts | 239° |
| 2026-05-04 21:10 | 25.28524 | 85.67219 | 18574 ft | 382 kts | 239° |
| 2026-05-04 21:10 | 25.27088 | 85.64777 | 18096 ft | 376 kts | 239° |
| 2026-05-04 21:11 | 25.25666 | 85.62362 | 17553 ft | 373 kts | 239° |
| 2026-05-04 21:11 | 25.24254 | 85.59967 | 17016 ft | 372 kts | 239° |
| 2026-05-04 21:11 | 25.22864 | 85.57614 | 16506 ft | 370 kts | 239° |
| 2026-05-04 21:11 | 25.21462 | 85.55236 | 16012 ft | 368 kts | 239° |
| 2026-05-04 21:12 | 25.20062 | 85.52865 | 15524 ft | 367 kts | 240° |
| 2026-05-04 21:12 | 25.18674 | 85.50517 | 15050 ft | 364 kts | 240° |
| 2026-05-04 21:12 | 25.17296 | 85.48189 | 14578 ft | 361 kts | 240° |
| 2026-05-04 21:12 | 25.15930 | 85.45885 | 14112 ft | 356 kts | 240° |
| 2026-05-04 21:13 | 25.14591 | 85.43628 | 13723 ft | 347 kts | 240° |
| 2026-05-04 21:13 | 25.13281 | 85.41418 | 13286 ft | 340 kts | 240° |
| 2026-05-04 21:13 | 25.12001 | 85.39257 | 12856 ft | 333 kts | 240° |
| 2026-05-04 21:13 | 25.10748 | 85.37145 | 12434 ft | 326 kts | 239° |
| 2026-05-04 21:14 | 25.09518 | 85.35071 | 12015 ft | 317 kts | 239° |
| 2026-05-04 21:14 | 25.08327 | 85.33064 | 11594 ft | 308 kts | 239° |
| 2026-05-04 21:14 | 25.07166 | 85.31112 | 11188 ft | 301 kts | 239° |
| 2026-05-04 21:14 | 25.06032 | 85.29204 | 10824 ft | 293 kts | 239° |
| 2026-05-04 21:15 | 25.04934 | 85.27353 | 10474 ft | 285 kts | 239° |
| 2026-05-04 21:15 | 25.03872 | 85.25567 | 10130 ft | 278 kts | 239° |
| 2026-05-04 21:15 | 25.02825 | 85.23803 | 9786 ft | 271 kts | 239° |
| 2026-05-04 21:15 | 25.01793 | 85.22063 | 9407 ft | 264 kts | 239° |
| 2026-05-04 21:16 | 25.00809 | 85.20403 | 9031 ft | 260 kts | 238° |
| 2026-05-04 21:16 | 24.99823 | 85.18743 | 8660 ft | 258 kts | 238° |
| 2026-05-04 21:16 | 24.98843 | 85.17099 | 8296 ft | 256 kts | 238° |
| 2026-05-04 21:16 | 24.97870 | 85.15462 | 7973 ft | 255 kts | 238° |
| 2026-05-04 21:17 | 24.96900 | 85.13829 | 7681 ft | 253 kts | 238° |
| 2026-05-04 21:17 | 24.95940 | 85.12211 | 7393 ft | 251 kts | 238° |
| 2026-05-04 21:17 | 24.94986 | 85.10605 | 7114 ft | 249 kts | 238° |
| 2026-05-04 21:17 | 24.94039 | 85.09014 | 6833 ft | 247 kts | 237° |
| 2026-05-04 21:18 | 24.93100 | 85.07440 | 6556 ft | 245 kts | 236° |
| 2026-05-04 21:18 | 24.92165 | 85.05877 | 6273 ft | 243 kts | 236° |
| 2026-05-04 21:18 | 24.91240 | 85.04327 | 5981 ft | 240 kts | 236° |
| 2026-05-04 21:18 | 24.90332 | 85.02806 | 5686 ft | 234 kts | 236° |
| 2026-05-04 21:19 | 24.89453 | 85.01333 | 5411 ft | 226 kts | 235° |
| 2026-05-04 21:19 | 24.88602 | 84.99909 | 5148 ft | 219 kts | 235° |
| 2026-05-04 21:19 | 24.87779 | 84.98532 | 4905 ft | 210 kts | 234° |
| 2026-05-04 21:19 | 24.86996 | 84.97222 | 4659 ft | 199 kts | 234° |
| 2026-05-04 21:20 | 24.86255 | 84.95979 | 4441 ft | 189 kts | 234° |
| 2026-05-04 21:20 | 24.85784 | 84.95188 | 4300 ft | 183 kts | 234° |
| 2026-05-04 21:20 | 24.85098 | 84.94039 | 4091 ft | 179 kts | 233° |
| 2026-05-04 21:20 | 24.84411 | 84.92894 | 3874 ft | 179 kts | 233° |
| 2026-05-04 21:21 | 24.83726 | 84.91754 | 3670 ft | 178 kts | 233° |
| 2026-05-04 21:21 | 24.83053 | 84.90628 | 3472 ft | 174 kts | 233° |
| 2026-05-04 21:21 | 24.82391 | 84.89523 | 3319 ft | 172 kts | 232° |
| 2026-05-04 21:21 | 24.81741 | 84.88439 | 3162 ft | 167 kts | 232° |
| 2026-05-04 21:22 | 24.81122 | 84.87404 | 2937 ft | 159 kts | 232° |
| 2026-05-04 21:22 | 24.80431 | 84.86473 | 2740 ft | 156 kts | 214° |
| 2026-05-04 21:22 | 24.79469 | 84.86010 | 2536 ft | 149 kts | 188° |
| 2026-05-04 21:22 | 24.78464 | 84.86085 | 2344 ft | 140 kts | 162° |
| 2026-05-04 21:23 | 24.77672 | 84.86586 | 2140 ft | 127 kts | 139° |
| 2026-05-04 21:23 | 24.77167 | 84.87354 | 1934 ft | 126 kts | 117° |
| 2026-05-04 21:23 | 24.76800 | 84.88227 | 1728 ft | 125 kts | 116° |
| 2026-05-04 21:23 | 24.76425 | 84.89091 | 1455 ft | 126 kts | 117° |
| 2026-05-04 21:24 | 24.76037 | 84.89954 | 1190 ft | 125 kts | 116° |
| 2026-05-04 21:24 | 24.75646 | 84.90817 | 968 ft | 127 kts | 117° |
| 2026-05-04 21:24 | 24.75288 | 84.91710 | 782 ft | 129 kts | 111° |
| 2026-05-04 21:24 | 24.74986 | 84.92635 | 623 ft | 129 kts | 109° |
| 2026-05-04 21:25 | 24.74746 | 84.93584 | 460 ft | 129 kts | 103° |
| 2026-05-04 21:25 | 24.74535 | 84.94524 | 377 ft | 118 kts | 104° |
| 2026-05-04 21:25 | 24.74395 | 84.95151 | 382 ft | 42 kts | 104° |
| 2026-05-04 21:25 | 24.74356 | 84.95282 | 386 ft | 4 kts | 70° |
| 2026-05-04 21:26 | 24.74371 | 84.95257 | 385 ft | 6 kts | 284° |
| 2026-05-04 21:26 | 24.74388 | 84.95172 | 383 ft | 19 kts | 284° |
| 2026-05-04 21:26 | 24.74426 | 84.95000 | 380 ft | 25 kts | 283° |
| 2026-05-04 21:26 | 24.74468 | 84.94808 | 377 ft | 27 kts | 282° |
| 2026-05-04 21:27 | 24.74510 | 84.94599 | 375 ft | 28 kts | 285° |
| 2026-05-04 21:27 | 24.74560 | 84.94416 | 373 ft | 23 kts | 286° |
| 2026-05-04 21:27 | 24.74598 | 84.94322 | 373 ft | 11 kts | 337° |
| 2026-05-04 21:27 | 24.74676 | 84.94335 | 374 ft | 12 kts | 15° |
| 2026-05-04 21:28 | 24.74735 | 84.94353 | 374 ft | 6 kts | 13° |
| 2026-05-04 21:28 | 24.74758 | 84.94360 | 374 ft | 0 kts | 15° |
| 2026-05-04 21:28 | 24.74773 | 84.94366 | 374 ft | 5 kts | 17° |
| 2026-05-04 21:28 | 24.74813 | 84.94372 | 374 ft | 6 kts | 51° |
| 2026-05-04 21:29 | 24.74822 | 84.94388 | 374 ft | 1 kts | 59° |
| 2026-05-04 21:29 | 24.74823 | 84.94389 | 375 ft | 0 kts | 59° |